Weather History for Drummond Island, MI

Change the Weather History Date:

Monday, May 21, 2012

  Actual Average (KCIU) Record (KCIU)
Temperature  
Mean Temperature 58 °F -  
Max Temperature 69 °F 67 °F 81 °F (1980)
Min Temperature 46 °F 35 °F 27 °F (1983)
Degree Days  
Heating Degree Days 8    
Growing Degree Days 8 (Base 50)    
Moisture  
Dew Point 49 °F    
Average Humidity 77    
Maximum Humidity 94    
Minimum Humidity 49    
Precipitation  
Precipitation 0.00 in - - ()
Sea Level Pressure  
Sea Level Pressure 30.01 in    
Wind  
Wind Speed 8 mph (WNW)    
Max Wind Speed 13 mph    
Max Gust Speed 22 mph    
Visibility 10 miles    
Events Rain    
Averages and records for this station are not official NWS values.
T = Trace of Precipitation, MM = Missing Value Source: NWS Daily Summary

Daily Weather History Graph

Daily Weather History Graph

Search for Another Location

Airport:

Trip Planner

Search our weather history database for the weather conditions in past years. The results will help you decide how hot, cold, wet, or windy it might be!

Date:

Astronomy

May. 21, 2012 Rise Set
Actual Time 5:55 AM EDT 9:07 PM EDT
Civil Twilight 5:19 AM EDT 9:44 PM EDT
Nautical Twilight 4:33 AM EDT 10:31 PM EDT
Astronomical Twilight 3:35 AM EDT 11:29 PM EDT
Moon 6:17 AM EDT (5/21) 9:58 PM EDT (5/21)
Length of Visible Light 16h 24m
Length of Day
15h 12m
New Moon, 0% of the Moon is Illuminated
May 21
New Moon
May 28
First Quarter
Jun 4
Full
Jun 11
Last Quarter
Jun 19
New

Hourly Weather History & Observations

Time (EDT) Temp. Dew Point Humidity Pressure Visibility Wind Dir Wind Speed Gust Speed Precip Events Conditions
12:16 AM 69.8 °F 50.0 °F 49% 29.89 in 10.0 mi South 12.7 mph 19.6 mph N/A   Clear
12:35 AM 69.8 °F 50.0 °F 49% 29.89 in 10.0 mi South 11.5 mph 18.4 mph N/A   Clear
12:55 AM 68.0 °F 50.0 °F 52% 29.93 in 10.0 mi SSW 12.7 mph 21.9 mph N/A   Mostly Cloudy
1:15 AM 64.4 °F 50.0 °F 59% 29.92 in 10.0 mi SSW 9.2 mph 17.3 mph N/A   Scattered Clouds
1:35 AM 66.2 °F 51.8 °F 60% 29.93 in 10.0 mi WSW 5.8 mph - N/A   Clear
1:55 AM 68.0 °F 55.4 °F 64% 29.91 in 10.0 mi SW 4.6 mph - N/A   Clear
2:15 AM 64.4 °F 55.4 °F 73% 29.91 in 10.0 mi SSW 4.6 mph - N/A   Clear
2:35 AM 64.4 °F 55.4 °F 73% 29.91 in 10.0 mi SSW 4.6 mph - N/A   Scattered Clouds
2:55 AM 64.4 °F 57.2 °F 77% 29.90 in 10.0 mi SW 4.6 mph - N/A   Scattered Clouds
3:16 AM 64.4 °F 57.2 °F 77% 29.90 in 10.0 mi SSW 5.8 mph - N/A   Clear
3:35 AM 62.6 °F 57.2 °F 82% 29.91 in 10.0 mi South 4.6 mph - N/A   Clear
3:55 AM 62.6 °F 55.4 °F 77% 29.91 in 10.0 mi SSW 6.9 mph - N/A   Clear
4:15 AM 62.6 °F 55.4 °F 77% 29.93 in 10.0 mi SW 5.8 mph - N/A   Scattered Clouds
4:35 AM 60.8 °F 55.4 °F 82% 29.93 in 10.0 mi WSW 6.9 mph - N/A   Clear
4:55 AM 60.8 °F 55.4 °F 82% 29.93 in 10.0 mi West 4.6 mph - N/A   Clear
5:16 AM 59.0 °F 53.6 °F 82% 29.94 in 10.0 mi WNW 6.9 mph - N/A   Mostly Cloudy
5:35 AM 57.2 °F 53.6 °F 88% 29.95 in 10.0 mi NW 5.8 mph - N/A   Overcast
5:55 AM 57.2 °F 53.6 °F 88% 29.95 in 10.0 mi WNW 3.5 mph - N/A   Overcast
6:15 AM 55.4 °F 51.8 °F 88% 29.96 in 10.0 mi WNW 8.1 mph - N/A   Overcast
6:35 AM 53.6 °F 51.8 °F 94% 29.97 in 10.0 mi WNW 6.9 mph - N/A   Overcast
6:55 AM 53.6 °F 51.8 °F 94% 29.98 in 10.0 mi NW 5.8 mph - N/A Rain Light Rain
7:16 AM 53.6 °F 50.0 °F 88% 29.98 in 10.0 mi WNW 6.9 mph - N/A   Overcast
7:35 AM 53.6 °F 50.0 °F 88% 29.99 in 10.0 mi WNW 6.9 mph - N/A   Overcast
7:55 AM 53.6 °F 50.0 °F 88% 30.00 in 10.0 mi WNW 6.9 mph - N/A   Overcast
8:15 AM 51.8 °F 48.2 °F 88% 30.01 in 10.0 mi WNW 10.4 mph 16.1 mph N/A   Overcast
8:35 AM 51.8 °F 46.4 °F 82% 30.00 in 10.0 mi WNW 9.2 mph 17.3 mph N/A   Overcast
8:55 AM 51.8 °F 46.4 °F 82% 29.99 in 10.0 mi NW 9.2 mph 18.4 mph N/A   Scattered Clouds
9:16 AM 53.6 °F 46.4 °F 77% 30.00 in 10.0 mi NW 11.5 mph 17.3 mph N/A   Clear
9:35 AM 53.6 °F 46.4 °F 77% 30.00 in 10.0 mi WNW 6.9 mph - N/A   Clear
9:55 AM 51.8 °F 46.4 °F 82% 30.02 in 10.0 mi WNW 6.9 mph - N/A   Scattered Clouds
10:15 AM 50.0 °F 46.4 °F 87% 30.02 in 10.0 mi WNW 8.1 mph - N/A   Overcast
10:35 AM 50.0 °F 46.4 °F 87% 30.03 in 10.0 mi NW 8.1 mph - N/A   Overcast
10:56 AM 50.0 °F 46.4 °F 87% 30.03 in 10.0 mi West 10.4 mph 17.3 mph N/A   Overcast
11:15 AM 51.8 °F 46.4 °F 82% 30.03 in 10.0 mi West 10.4 mph 16.1 mph N/A   Overcast
11:35 AM 51.8 °F 46.4 °F 82% 30.04 in 10.0 mi West 10.4 mph - N/A   Overcast
11:56 AM 51.8 °F 46.4 °F 82% 30.04 in 10.0 mi WNW 8.1 mph - N/A   Overcast
12:16 PM 51.8 °F 46.4 °F 82% 30.04 in 10.0 mi WNW 11.5 mph 17.3 mph N/A   Overcast
12:35 PM 51.8 °F 46.4 °F 82% 30.05 in 10.0 mi WNW 9.2 mph 19.6 mph N/A   Overcast
12:55 PM 51.8 °F 46.4 °F 82% 30.05 in 10.0 mi WNW 9.2 mph - N/A   Overcast
1:15 PM 51.8 °F 46.4 °F 82% 30.05 in 10.0 mi West 9.2 mph - N/A   Overcast
1:35 PM 53.6 °F 46.4 °F 77% 30.05 in 10.0 mi WNW 11.5 mph 17.3 mph N/A   Overcast
1:55 PM 53.6 °F 46.4 °F 77% 30.05 in 10.0 mi WNW 10.4 mph 18.4 mph N/A   Overcast
2:15 PM 55.4 °F 48.2 °F 77% 30.05 in 10.0 mi WNW 9.2 mph 16.1 mph N/A   Overcast
2:35 PM 55.4 °F 48.2 °F 77% 30.05 in 10.0 mi WNW 10.4 mph 19.6 mph N/A   Overcast
2:55 PM 55.4 °F 46.4 °F 72% 30.05 in 10.0 mi WNW 11.5 mph 19.6 mph N/A   Overcast
3:15 PM 55.4 °F 46.4 °F 72% 30.05 in 10.0 mi WNW 10.4 mph 18.4 mph N/A   Overcast
3:35 PM 55.4 °F 48.2 °F 77% 30.05 in 10.0 mi WNW 12.7 mph 16.1 mph N/A   Overcast
3:56 PM 57.2 °F 48.2 °F 72% 30.05 in 10.0 mi NW 12.7 mph 17.3 mph N/A   Overcast
4:15 PM 59.0 °F 50.0 °F 72% 30.05 in 10.0 mi NW 9.2 mph 16.1 mph N/A   Overcast
4:35 PM 57.2 °F 50.0 °F 77% 30.05 in 10.0 mi NW 8.1 mph 17.3 mph N/A   Overcast
4:56 PM 57.2 °F 50.0 °F 77% 30.05 in 10.0 mi NW 9.2 mph - N/A   Overcast
5:15 PM 57.2 °F 50.0 °F 77% 30.05 in 10.0 mi NW 9.2 mph 17.3 mph N/A   Overcast
5:35 PM 57.2 °F 50.0 °F 77% 30.04 in 10.0 mi NW 9.2 mph - N/A   Overcast
5:56 PM 59.0 °F 50.0 °F 72% 30.05 in 10.0 mi NW 9.2 mph 16.1 mph N/A   Overcast
6:16 PM 59.0 °F 50.0 °F 72% 30.05 in 10.0 mi NW 9.2 mph - N/A   Overcast
6:35 PM 57.2 °F 48.2 °F 72% 30.05 in 10.0 mi NNW 6.9 mph - N/A   Overcast
6:56 PM 57.2 °F 46.4 °F 67% 30.05 in 10.0 mi NW 9.2 mph - N/A   Mostly Cloudy
7:15 PM 55.4 °F 46.4 °F 72% 30.05 in 10.0 mi NW 10.4 mph 19.6 mph N/A   Mostly Cloudy
7:35 PM 55.4 °F 44.6 °F 67% 30.06 in 10.0 mi NW 10.4 mph 19.6 mph N/A   Mostly Cloudy
7:56 PM 55.4 °F 44.6 °F 67% 30.06 in 10.0 mi NW 9.2 mph 16.1 mph N/A   Scattered Clouds
8:15 PM 53.6 °F 44.6 °F 72% 30.06 in 10.0 mi NW 5.8 mph - N/A   Clear
8:35 PM 53.6 °F 44.6 °F 72% 30.06 in 10.0 mi NW 5.8 mph - N/A   Clear
8:55 PM 51.8 °F 44.6 °F 76% 30.06 in 10.0 mi NW 5.8 mph - N/A   Clear
9:16 PM 51.8 °F 44.6 °F 76% 30.07 in 10.0 mi WNW 5.8 mph - N/A   Clear
9:35 PM 51.8 °F 42.8 °F 71% 30.07 in 10.0 mi WNW 4.6 mph - N/A   Clear
9:56 PM 50.0 °F 42.8 °F 76% 30.08 in 10.0 mi Calm Calm - N/A   Clear
10:16 PM 50.0 °F 42.8 °F 76% 30.08 in 10.0 mi Calm Calm - N/A   Clear
10:35 PM 50.0 °F 42.8 °F 76% 30.08 in 10.0 mi Calm Calm - N/A   Clear
10:55 PM 48.2 °F 42.8 °F 82% 30.09 in 10.0 mi NW 3.5 mph - N/A   Clear
11:15 PM 48.2 °F 42.8 °F 82% 30.09 in 10.0 mi NW 3.5 mph - N/A   Clear
11:35 PM 46.4 °F 42.8 °F 87% 30.10 in 10.0 mi Calm Calm - N/A   Clear
11:55 PM 46.4 °F 42.8 °F 87% 30.10 in 10.0 mi Calm Calm - N/A   Clear